Time,TemperatureF,DewpointF,PressureIn,WindDirection,WindDirectionDegrees,WindSpeedMPH,WindSpeedGustMPH,Humidity,HourlyPrecipIn,Conditions,Clouds,dailyrainin,SoftwareType,DateUTC
2014-02-25 06:42:00,62.8,62.5,28.35,ENE,67,0.0,-999.0,99,-99.99,,,0.00,Acu-Link.com,2014-02-25 16:42:00,
2014-02-25 06:58:00,63.3,63.0,28.35,NE,45,0.0,-999.0,99,-99.99,,,0.00,Acu-Link.com,2014-02-25 16:58:00,
2014-02-25 07:13:00,63.7,63.4,28.37,East,90,0.0,-999.0,99,-99.99,,,0.00,Acu-Link.com,2014-02-25 17:13:00,
2014-02-25 07:28:00,64.0,63.7,28.36,NE,45,0.0,-999.0,99,-99.99,,,0.00,Acu-Link.com,2014-02-25 17:28:00,
2014-02-25 07:44:00,64.4,64.1,28.37,ENE,67,0.0,-999.0,99,-99.99,,,0.00,Acu-Link.com,2014-02-25 17:44:00,
2014-02-25 07:59:00,64.9,64.6,28.36,NE,45,0.0,-999.0,99,-99.99,,,0.00,Acu-Link.com,2014-02-25 17:59:00,
2014-02-25 08:14:00,65.5,64.9,28.37,East,90,0.0,-999.0,98,-99.99,,,0.00,Acu-Link.com,2014-02-25 18:14:00,
2014-02-25 08:29:00,66.0,65.1,28.37,ENE,67,0.0,-999.0,97,-99.99,,,0.00,Acu-Link.com,2014-02-25 18:29:00,
2014-02-25 08:44:00,67.3,63.9,28.37,East,90,0.0,-999.0,89,-99.99,,,0.00,Acu-Link.com,2014-02-25 18:44:00,
2014-02-25 08:59:00,67.8,64.1,28.38,West,270,0.0,-999.0,88,-99.99,,,0.00,Acu-Link.com,2014-02-25 18:59:00,
2014-02-25 09:15:00,69.3,63.9,28.38,ENE,67,0.0,-999.0,83,-99.99,,,0.00,Acu-Link.com,2014-02-25 19:15:00,
2014-02-25 09:30:00,71.1,64.2,28.38,South,180,0.0,-999.0,79,-99.99,,,0.00,Acu-Link.com,2014-02-25 19:30:00,
2014-02-25 09:45:00,71.8,63.4,28.39,SW,225,0.0,-999.0,75,-99.99,,,0.00,Acu-Link.com,2014-02-25 19:45:00,
2014-02-25 10:00:00,72.5,64.5,28.39,South,180,1.7,-999.0,76,-99.99,,,0.00,Acu-Link.com,2014-02-25 20:00:00,
2014-02-25 10:16:00,73.8,63.8,28.39,NNE,22,0.0,-999.0,71,-99.99,,,0.00,Acu-Link.com,2014-02-25 20:16:00,
2014-02-25 10:31:00,74.3,63.0,28.39,NE,45,1.1,-999.0,68,-99.99,,,0.00,Acu-Link.com,2014-02-25 20:31:00,
2014-02-25 10:46:00,74.5,62.4,28.37,WSW,247,0.0,-999.0,66,-99.99,,,0.00,Acu-Link.com,2014-02-25 20:46:00,
2014-02-25 11:01:00,75.0,63.3,28.37,NE,45,0.0,-999.0,67,-99.99,,,0.00,Acu-Link.com,2014-02-25 21:01:00,
2014-02-25 11:16:00,73.9,63.1,28.37,ENE,67,0.0,-999.0,69,-99.99,,,0.00,Acu-Link.com,2014-02-25 21:16:00,
2014-02-25 11:31:00,73.9,61.8,28.36,NNE,22,1.1,-999.0,66,-99.99,,,0.00,Acu-Link.com,2014-02-25 21:31:00,
2014-02-25 11:47:00,75.0,62.4,28.35,NNE,22,1.7,-999.0,65,-99.99,,,0.00,Acu-Link.com,2014-02-25 21:47:00,
2014-02-25 12:02:00,74.3,62.2,28.34,ESE,112,2.2,-999.0,66,-99.99,,,0.00,Acu-Link.com,2014-02-25 22:02:00,
2014-02-25 12:17:00,74.7,61.7,28.34,NNE,22,1.7,-999.0,64,-99.99,,,0.00,Acu-Link.com,2014-02-25 22:17:00,
2014-02-25 12:32:00,75.7,61.7,28.35,ESE,112,2.2,-999.0,62,-99.99,,,0.00,Acu-Link.com,2014-02-25 22:32:00,
2014-02-25 12:48:00,75.9,61.5,28.34,NE,45,1.1,-999.0,61,-99.99,,,0.00,Acu-Link.com,2014-02-25 22:48:00,
2014-02-25 13:03:00,76.5,62.5,28.32,NNW,337,1.7,-999.0,62,-99.99,,,0.00,Acu-Link.com,2014-02-25 23:03:00,
2014-02-25 13:18:00,77.2,61.7,28.32,North,0,2.2,-999.0,59,-99.99,,,0.00,Acu-Link.com,2014-02-25 23:18:00,
2014-02-25 13:34:00,75.7,61.7,28.33,NNE,22,2.7,-999.0,62,-99.99,,,0.00,Acu-Link.com,2014-02-25 23:34:00,
2014-02-25 13:49:00,76.1,62.6,28.31,SSE,157,0.0,-999.0,63,-99.99,,,0.00,Acu-Link.com,2014-02-25 23:49:00,
2014-02-25 14:04:00,77.5,61.5,28.30,SSE,157,1.7,-999.0,58,-99.99,,,0.00,Acu-Link.com,2014-02-26 00:04:00,
2014-02-25 14:19:00,78.3,61.8,28.28,NNE,22,1.7,-999.0,57,-99.99,,,0.00,Acu-Link.com,2014-02-26 00:19:00,
2014-02-25 14:35:00,76.6,62.6,28.30,NNW,337,1.7,-999.0,62,-99.99,,,0.00,Acu-Link.com,2014-02-26 00:35:00,
2014-02-25 14:50:00,77.5,61.5,28.28,NE,45,1.1,-999.0,58,-99.99,,,0.00,Acu-Link.com,2014-02-26 00:50:00,
2014-02-25 15:05:00,76.8,61.8,28.29,SW,225,0.0,-999.0,60,-99.99,,,0.00,Acu-Link.com,2014-02-26 01:05:00,
2014-02-25 15:21:00,76.5,62.9,28.28,NNE,22,1.1,-999.0,63,-99.99,,,0.00,Acu-Link.com,2014-02-26 01:21:00,
2014-02-25 15:36:00,76.8,61.8,28.26,NE,45,1.7,-999.0,60,-99.99,,,0.00,Acu-Link.com,2014-02-26 01:36:00,
2014-02-25 15:51:00,75.9,61.5,28.28,North,0,2.2,-999.0,61,-99.99,,,0.00,Acu-Link.com,2014-02-26 01:51:00,
2014-02-25 16:06:00,75.6,61.6,28.28,ENE,67,1.1,-999.0,62,-99.99,,,0.00,Acu-Link.com,2014-02-26 02:06:00,
2014-02-25 16:21:00,74.5,61.1,28.27,NE,45,1.7,-999.0,63,-99.99,,,0.00,Acu-Link.com,2014-02-26 02:21:00,
2014-02-25 16:36:00,74.5,61.1,28.28,NNW,337,1.1,-999.0,63,-99.99,,,0.00,Acu-Link.com,2014-02-26 02:36:00,
2014-02-25 16:51:00,73.9,60.9,28.28,NNE,22,2.2,-999.0,64,-99.99,,,0.00,Acu-Link.com,2014-02-26 02:51:00,
2014-02-25 17:07:00,73.4,61.3,28.28,NW,315,1.7,-999.0,66,-99.99,,,0.00,Acu-Link.com,2014-02-26 03:07:00,
2014-02-25 17:22:00,73.2,60.7,28.28,NNW,337,2.2,-999.0,65,-99.99,,,0.00,Acu-Link.com,2014-02-26 03:22:00,
2014-02-25 17:38:00,72.9,60.9,28.30,NE,45,2.2,-999.0,66,-99.99,,,0.00,Acu-Link.com,2014-02-26 03:38:00,
2014-02-25 17:53:00,72.1,60.9,28.29,ENE,67,0.0,-999.0,68,-99.99,,,0.00,Acu-Link.com,2014-02-26 03:53:00,
2014-02-25 18:10:00,71.4,60.7,28.32,NNW,337,1.7,-999.0,69,-99.99,,,0.00,Acu-Link.com,2014-02-26 04:10:00,
2014-02-25 18:25:00,70.5,60.6,28.29,East,90,0.0,-999.0,71,-99.99,,,0.00,Acu-Link.com,2014-02-26 04:25:00,
2014-02-25 18:40:00,70.0,60.2,28.31,NE,45,0.0,-999.0,71,-99.99,,,0.00,Acu-Link.com,2014-02-26 04:40:00,
2014-02-25 18:55:00,69.3,59.9,28.31,NE,45,0.0,-999.0,72,-99.99,,,0.00,Acu-Link.com,2014-02-26 04:55:00,
2014-02-25 19:11:00,68.9,59.9,28.31,NNW,337,2.2,-999.0,73,-99.99,,,0.00,Acu-Link.com,2014-02-26 05:11:00,
2014-02-25 19:26:00,68.7,59.3,28.33,North,0,1.1,-999.0,72,-99.99,,,0.00,Acu-Link.com,2014-02-26 05:26:00,
2014-02-25 19:41:00,68.5,60.3,28.31,SSE,157,0.0,-999.0,75,-99.99,,,0.00,Acu-Link.com,2014-02-26 05:41:00,
2014-02-25 19:56:00,68.5,60.3,28.33,North,0,2.7,-999.0,75,-99.99,,,0.00,Acu-Link.com,2014-02-26 05:56:00,
2014-02-25 20:11:00,68.5,59.5,28.35,North,0,4.7,-999.0,73,-99.99,,,0.00,Acu-Link.com,2014-02-26 06:11:00,
2014-02-25 20:27:00,68.9,59.5,28.35,NNW,337,1.1,-999.0,72,-99.99,,,0.00,Acu-Link.com,2014-02-26 06:27:00,
2014-02-25 20:42:00,68.9,59.9,28.35,North,0,2.2,-999.0,73,-99.99,,,0.00,Acu-Link.com,2014-02-26 06:42:00,
2014-02-25 20:57:00,68.9,59.5,28.36,NNE,22,1.1,-999.0,72,-99.99,,,0.00,Acu-Link.com,2014-02-26 06:57:00,
2014-02-25 21:12:00,68.9,59.5,28.38,NNE,22,3.2,-999.0,72,-99.99,,,0.00,Acu-Link.com,2014-02-26 07:12:00,
2014-02-25 21:28:00,68.7,59.3,28.39,NNE,22,2.7,-999.0,72,-99.99,,,0.00,Acu-Link.com,2014-02-26 07:28:00,
2014-02-25 21:43:00,68.5,59.5,28.37,NE,45,0.0,-999.0,73,-99.99,,,0.00,Acu-Link.com,2014-02-26 07:43:00,
2014-02-25 21:58:00,68.5,59.9,28.37,NNE,22,0.0,-999.0,74,-99.99,,,0.00,Acu-Link.com,2014-02-26 07:58:00,
2014-02-25 22:13:00,68.0,59.4,28.39,SSE,157,0.0,-999.0,74,-99.99,,,0.00,Acu-Link.com,2014-02-26 08:13:00,
2014-02-25 22:29:00,67.1,60.0,28.38,East,90,0.0,-999.0,78,-99.99,,,0.00,Acu-Link.com,2014-02-26 08:29:00,
2014-02-25 22:45:00,65.7,59.4,28.38,ENE,67,0.0,-999.0,80,-99.99,,,0.00,Acu-Link.com,2014-02-26 08:45:00,
2014-02-25 23:00:00,64.9,58.9,28.41,ENE,67,0.0,-999.0,81,-99.99,,,0.00,Acu-Link.com,2014-02-26 09:00:00,
2014-02-25 23:16:00,64.4,59.1,28.41,East,90,0.0,-999.0,83,-99.99,,,0.00,Acu-Link.com,2014-02-26 09:16:00,
2014-02-25 23:32:00,63.7,58.8,28.39,ENE,67,0.0,-999.0,84,-99.99,,,0.00,Acu-Link.com,2014-02-26 09:32:00,
2014-02-25 23:47:00,63.3,59.0,28.40,East,90,0.0,-999.0,86,-99.99,,,0.00,Acu-Link.com,2014-02-26 09:47:00,